sensor_id;sensor_type;location;lat;lon;timestamp;P1;durP1;ratioP1;P2;durP2;ratioP2
18997;SDS011;9632;51.018;4.284;2023-02-15T00:00:25;46.45;;;20.30;;
18997;SDS011;9632;51.018;4.284;2023-02-15T00:02:51;42.43;;;19.73;;
18997;SDS011;9632;51.018;4.284;2023-02-15T00:05:16;44.67;;;19.48;;
18997;SDS011;9632;51.018;4.284;2023-02-15T00:07:42;43.50;;;20.13;;
18997;SDS011;9632;51.018;4.284;2023-02-15T00:10:08;45.60;;;20.48;;
18997;SDS011;9632;51.018;4.284;2023-02-15T00:12:34;40.65;;;18.80;;
18997;SDS011;9632;51.018;4.284;2023-02-15T00:15:00;49.80;;;21.35;;
18997;SDS011;9632;51.018;4.284;2023-02-15T00:17:29;46.87;;;21.20;;
18997;SDS011;9632;51.018;4.284;2023-02-15T00:19:54;47.88;;;20.65;;
18997;SDS011;9632;51.018;4.284;2023-02-15T00:22:20;45.70;;;20.70;;
18997;SDS011;9632;51.018;4.284;2023-02-15T00:24:47;47.13;;;21.60;;
18997;SDS011;9632;51.018;4.284;2023-02-15T00:27:13;54.20;;;23.60;;
18997;SDS011;9632;51.018;4.284;2023-02-15T00:29:38;53.92;;;23.38;;
18997;SDS011;9632;51.018;4.284;2023-02-15T00:32:04;49.60;;;23.17;;
18997;SDS011;9632;51.018;4.284;2023-02-15T00:34:31;51.00;;;23.15;;
18997;SDS011;9632;51.018;4.284;2023-02-15T00:36:56;51.13;;;23.20;;
18997;SDS011;9632;51.018;4.284;2023-02-15T00:39:22;52.97;;;23.13;;
18997;SDS011;9632;51.018;4.284;2023-02-15T00:41:48;53.90;;;22.73;;
18997;SDS011;9632;51.018;4.284;2023-02-15T00:44:14;52.47;;;23.07;;
18997;SDS011;9632;51.018;4.284;2023-02-15T00:46:58;53.40;;;22.95;;
18997;SDS011;9632;51.018;4.284;2023-02-15T00:49:24;50.60;;;22.77;;
18997;SDS011;9632;51.018;4.284;2023-02-15T00:51:50;52.47;;;22.93;;
18997;SDS011;9632;51.018;4.284;2023-02-15T00:54:15;52.97;;;23.60;;
18997;SDS011;9632;51.018;4.284;2023-02-15T00:56:41;52.53;;;24.38;;
18997;SDS011;9632;51.018;4.284;2023-02-15T00:59:08;49.88;;;23.98;;
18997;SDS011;9632;51.018;4.284;2023-02-15T01:04:56;54.60;;;23.08;;
18997;SDS011;9632;51.018;4.284;2023-02-15T01:07:21;57.67;;;25.07;;
18997;SDS011;9632;51.018;4.284;2023-02-15T01:12:32;53.80;;;24.20;;
18997;SDS011;9632;51.018;4.284;2023-02-15T01:14:58;54.28;;;25.02;;
18997;SDS011;9632;51.018;4.284;2023-02-15T05:40:10;49.10;;;21.30;;
18997;SDS011;9632;51.018;4.284;2023-02-15T05:49:32;54.40;;;22.40;;
18997;SDS011;9632;51.018;4.284;2023-02-15T05:55:32;51.00;;;22.30;;
18997;SDS011;9632;51.018;4.284;2023-02-15T06:01:22;50.47;;;22.20;;
18997;SDS011;9632;51.018;4.284;2023-02-15T06:07:19;49.03;;;21.57;;
18997;SDS011;9632;51.018;4.284;2023-02-15T06:13:09;48.37;;;22.50;;
18997;SDS011;9632;51.018;4.284;2023-02-15T06:18:19;53.47;;;23.63;;
18997;SDS011;9632;51.018;4.284;2023-02-15T06:20:45;56.27;;;23.00;;
18997;SDS011;9632;51.018;4.284;2023-02-15T06:23:11;60.47;;;24.20;;
18997;SDS011;9632;51.018;4.284;2023-02-15T06:25:37;53.90;;;23.77;;
18997;SDS011;9632;51.018;4.284;2023-02-15T06:28:03;53.63;;;24.47;;
18997;SDS011;9632;51.018;4.284;2023-02-15T06:30:29;58.00;;;24.60;;
18997;SDS011;9632;51.018;4.284;2023-02-15T06:32:54;55.60;;;24.37;;
18997;SDS011;9632;51.018;4.284;2023-02-15T06:35:20;57.10;;;23.47;;
18997;SDS011;9632;51.018;4.284;2023-02-15T06:37:47;56.40;;;24.30;;
18997;SDS011;9632;51.018;4.284;2023-02-15T06:40:12;53.50;;;23.40;;
18997;SDS011;9632;51.018;4.284;2023-02-15T06:42:38;54.10;;;24.00;;
18997;SDS011;9632;51.018;4.284;2023-02-15T06:45:04;54.13;;;23.90;;
18997;SDS011;9632;51.018;4.284;2023-02-15T06:47:30;56.93;;;23.97;;
18997;SDS011;9632;51.018;4.284;2023-02-15T06:49:56;55.90;;;25.27;;
18997;SDS011;9632;51.018;4.284;2023-02-15T06:52:22;62.57;;;25.87;;
18997;SDS011;9632;51.018;4.284;2023-02-15T07:01:03;60.10;;;24.53;;
18997;SDS011;9632;51.018;4.284;2023-02-15T07:07:02;61.57;;;26.10;;
18997;SDS011;9632;51.018;4.284;2023-02-15T07:13:06;63.83;;;26.00;;
18997;SDS011;9632;51.018;4.284;2023-02-15T07:18:53;61.27;;;25.47;;
18997;SDS011;9632;51.018;4.284;2023-02-15T07:45:27;61.93;;;27.10;;
18997;SDS011;9632;51.018;4.284;2023-02-15T07:47:54;60.20;;;26.00;;
18997;SDS011;9632;51.018;4.284;2023-02-15T07:50:20;58.47;;;26.67;;
18997;SDS011;9632;51.018;4.284;2023-02-15T07:52:47;65.50;;;26.83;;
18997;SDS011;9632;51.018;4.284;2023-02-15T07:55:13;61.73;;;27.53;;
18997;SDS011;9632;51.018;4.284;2023-02-15T07:57:42;59.47;;;25.47;;
18997;SDS011;9632;51.018;4.284;2023-02-15T08:00:10;65.50;;;26.07;;
18997;SDS011;9632;51.018;4.284;2023-02-15T08:02:39;59.47;;;26.73;;
18997;SDS011;9632;51.018;4.284;2023-02-15T08:08:27;62.77;;;27.43;;
18997;SDS011;9632;51.018;4.284;2023-02-15T08:14:03;63.53;;;28.23;;
18997;SDS011;9632;51.018;4.284;2023-02-15T08:16:48;66.07;;;29.20;;
18997;SDS011;9632;51.018;4.284;2023-02-15T08:19:19;73.13;;;30.20;;
18997;SDS011;9632;51.018;4.284;2023-02-15T08:22:03;66.30;;;30.20;;
18997;SDS011;9632;51.018;4.284;2023-02-15T08:24:35;71.20;;;30.17;;
18997;SDS011;9632;51.018;4.284;2023-02-15T08:27:02;74.87;;;31.37;;
18997;SDS011;9632;51.018;4.284;2023-02-15T08:29:29;73.50;;;30.70;;
18997;SDS011;9632;51.018;4.284;2023-02-15T08:32:04;64.47;;;27.20;;
18997;SDS011;9632;51.018;4.284;2023-02-15T08:34:35;57.97;;;26.90;;
18997;SDS011;9632;51.018;4.284;2023-02-15T08:37:03;53.80;;;24.40;;
18997;SDS011;9632;51.018;4.284;2023-02-15T08:39:29;50.93;;;24.90;;
18997;SDS011;9632;51.018;4.284;2023-02-15T08:41:54;49.13;;;23.43;;
18997;SDS011;9632;51.018;4.284;2023-02-15T08:44:22;57.30;;;25.77;;
18997;SDS011;9632;51.018;4.284;2023-02-15T08:46:49;50.47;;;24.17;;
18997;SDS011;9632;51.018;4.284;2023-02-15T08:49:16;51.95;;;24.50;;
18997;SDS011;9632;51.018;4.284;2023-02-15T08:51:44;54.60;;;25.80;;
18997;SDS011;9632;51.018;4.284;2023-02-15T08:54:12;59.17;;;26.53;;
18997;SDS011;9632;51.018;4.284;2023-02-15T08:56:40;63.03;;;27.27;;
18997;SDS011;9632;51.018;4.284;2023-02-15T08:59:10;56.85;;;25.45;;
18997;SDS011;9632;51.018;4.284;2023-02-15T09:01:44;59.95;;;28.00;;
18997;SDS011;9632;51.018;4.284;2023-02-15T09:04:10;72.53;;;34.77;;
18997;SDS011;9632;51.018;4.284;2023-02-15T09:06:38;104.93;;;43.38;;
18997;SDS011;9632;51.018;4.284;2023-02-15T09:09:05;87.27;;;37.57;;
18997;SDS011;9632;51.018;4.284;2023-02-15T09:11:36;77.53;;;34.10;;
18997;SDS011;9632;51.018;4.284;2023-02-15T09:14:13;85.80;;;33.27;;
18997;SDS011;9632;51.018;4.284;2023-02-15T09:16:41;107.50;;;37.28;;
18997;SDS011;9632;51.018;4.284;2023-02-15T09:19:14;131.88;;;37.85;;
18997;SDS011;9632;51.018;4.284;2023-02-15T09:21:40;124.07;;;38.38;;
18997;SDS011;9632;51.018;4.284;2023-02-15T09:24:08;79.55;;;31.92;;
18997;SDS011;9632;51.018;4.284;2023-02-15T09:26:37;72.57;;;30.00;;
18997;SDS011;9632;51.018;4.284;2023-02-15T09:29:07;77.18;;;31.80;;
18997;SDS011;9632;51.018;4.284;2023-02-15T09:31:44;73.03;;;30.48;;
18997;SDS011;9632;51.018;4.284;2023-02-15T09:34:13;63.13;;;25.70;;
18997;SDS011;9632;51.018;4.284;2023-02-15T09:36:42;64.45;;;26.35;;
18997;SDS011;9632;51.018;4.284;2023-02-15T09:39:15;63.58;;;26.27;;
18997;SDS011;9632;51.018;4.284;2023-02-15T09:50:22;60.53;;;24.60;;
18997;SDS011;9632;51.018;4.284;2023-02-15T10:07:39;59.92;;;25.15;;
18997;SDS011;9632;51.018;4.284;2023-02-15T10:13:32;59.55;;;24.38;;
18997;SDS011;9632;51.018;4.284;2023-02-15T10:18:52;58.97;;;25.30;;
18997;SDS011;9632;51.018;4.284;2023-02-15T10:27:20;62.60;;;25.17;;
18997;SDS011;9632;51.018;4.284;2023-02-15T10:29:57;59.03;;;24.10;;
18997;SDS011;9632;51.018;4.284;2023-02-15T10:35:25;51.70;;;22.85;;
18997;SDS011;9632;51.018;4.284;2023-02-15T10:40:36;49.00;;;23.48;;
18997;SDS011;9632;51.018;4.284;2023-02-15T10:55:23;57.53;;;23.80;;
18997;SDS011;9632;51.018;4.284;2023-02-15T10:57:55;51.72;;;22.63;;
18997;SDS011;9632;51.018;4.284;2023-02-15T11:00:27;52.28;;;23.02;;
18997;SDS011;9632;51.018;4.284;2023-02-15T11:08:43;56.88;;;23.60;;
18997;SDS011;9632;51.018;4.284;2023-02-15T11:11:21;57.65;;;24.67;;
18997;SDS011;9632;51.018;4.284;2023-02-15T11:13:53;53.65;;;23.20;;
18997;SDS011;9632;51.018;4.284;2023-02-15T11:16:28;50.05;;;23.08;;
18997;SDS011;9632;51.018;4.284;2023-02-15T11:19:15;50.92;;;23.75;;
18997;SDS011;9632;51.018;4.284;2023-02-15T11:21:46;55.15;;;24.10;;
18997;SDS011;9632;51.018;4.284;2023-02-15T11:24:17;52.38;;;23.67;;
18997;SDS011;9632;51.018;4.284;2023-02-15T11:37:16;56.15;;;23.60;;
18997;SDS011;9632;51.018;4.284;2023-02-15T11:46:29;53.20;;;23.02;;
18997;SDS011;9632;51.018;4.284;2023-02-15T11:48:54;48.38;;;23.20;;
18997;SDS011;9632;51.018;4.284;2023-02-15T11:51:21;52.85;;;24.55;;
18997;SDS011;9632;51.018;4.284;2023-02-15T11:53:48;50.08;;;23.27;;
18997;SDS011;9632;51.018;4.284;2023-02-15T11:56:18;51.30;;;25.15;;
18997;SDS011;9632;51.018;4.284;2023-02-15T11:58:51;59.75;;;27.85;;
18997;SDS011;9632;51.018;4.284;2023-02-15T12:01:37;60.38;;;28.52;;
18997;SDS011;9632;51.018;4.284;2023-02-15T12:06:46;53.90;;;24.23;;
18997;SDS011;9632;51.018;4.284;2023-02-15T12:12:20;49.45;;;22.92;;
18997;SDS011;9632;51.018;4.284;2023-02-15T12:14:55;51.20;;;23.40;;
18997;SDS011;9632;51.018;4.284;2023-02-15T12:17:24;50.60;;;23.23;;
18997;SDS011;9632;51.018;4.284;2023-02-15T12:23:26;50.92;;;23.35;;
18997;SDS011;9632;51.018;4.284;2023-02-15T12:25:57;52.35;;;23.83;;
18997;SDS011;9632;51.018;4.284;2023-02-15T12:28:34;52.30;;;24.50;;
18997;SDS011;9632;51.018;4.284;2023-02-15T12:33:57;51.05;;;23.80;;
18997;SDS011;9632;51.018;4.284;2023-02-15T12:36:47;49.22;;;23.15;;
18997;SDS011;9632;51.018;4.284;2023-02-15T12:39:30;49.45;;;23.15;;
18997;SDS011;9632;51.018;4.284;2023-02-15T12:42:17;54.55;;;24.02;;
18997;SDS011;9632;51.018;4.284;2023-02-15T12:45:00;52.63;;;24.08;;
18997;SDS011;9632;51.018;4.284;2023-02-15T12:47:29;52.95;;;23.73;;
18997;SDS011;9632;51.018;4.284;2023-02-15T12:50:12;47.58;;;22.65;;
18997;SDS011;9632;51.018;4.284;2023-02-15T12:52:49;48.72;;;23.48;;
18997;SDS011;9632;51.018;4.284;2023-02-15T12:58:08;48.05;;;23.90;;
18997;SDS011;9632;51.018;4.284;2023-02-15T13:01:14;51.78;;;24.17;;
18997;SDS011;9632;51.018;4.284;2023-02-15T13:07:34;48.58;;;23.20;;
18997;SDS011;9632;51.018;4.284;2023-02-15T13:10:00;51.45;;;24.25;;
18997;SDS011;9632;51.018;4.284;2023-02-15T13:12:27;49.05;;;23.70;;
18997;SDS011;9632;51.018;4.284;2023-02-15T13:14:58;54.83;;;25.08;;
18997;SDS011;9632;51.018;4.284;2023-02-15T13:17:27;47.25;;;23.88;;
18997;SDS011;9632;51.018;4.284;2023-02-15T15:55:30;45.28;;;21.70;;
18997;SDS011;9632;51.018;4.284;2023-02-15T16:08:34;42.72;;;20.83;;
18997;SDS011;9632;51.018;4.284;2023-02-15T16:48:21;49.25;;;23.63;;
18997;SDS011;9632;51.018;4.284;2023-02-15T16:56:46;47.67;;;24.38;;
18997;SDS011;9632;51.018;4.284;2023-02-15T17:02:23;52.10;;;24.58;;
18997;SDS011;9632;51.018;4.284;2023-02-15T17:07:41;54.85;;;26.30;;
18997;SDS011;9632;51.018;4.284;2023-02-15T17:10:34;52.45;;;25.25;;
18997;SDS011;9632;51.018;4.284;2023-02-15T17:13:17;53.38;;;26.08;;
18997;SDS011;9632;51.018;4.284;2023-02-15T17:18:28;52.10;;;25.85;;
18997;SDS011;9632;51.018;4.284;2023-02-15T17:20:55;54.33;;;25.77;;
18997;SDS011;9632;51.018;4.284;2023-02-15T17:27:03;46.17;;;23.13;;
18997;SDS011;9632;51.018;4.284;2023-02-15T17:29:50;51.42;;;24.92;;
18997;SDS011;9632;51.018;4.284;2023-02-15T17:32:23;49.58;;;25.17;;
18997;SDS011;9632;51.018;4.284;2023-02-15T17:38:20;51.83;;;25.25;;
18997;SDS011;9632;51.018;4.284;2023-02-15T17:43:41;56.63;;;27.08;;
18997;SDS011;9632;51.018;4.284;2023-02-15T17:46:07;60.58;;;28.33;;
18997;SDS011;9632;51.018;4.284;2023-02-15T17:48:39;62.22;;;27.27;;
18997;SDS011;9632;51.018;4.284;2023-02-15T17:57:54;54.55;;;26.30;;
18997;SDS011;9632;51.018;4.284;2023-02-15T18:00:20;67.68;;;33.67;;
18997;SDS011;9632;51.018;4.284;2023-02-15T18:03:04;57.90;;;28.17;;
18997;SDS011;9632;51.018;4.284;2023-02-15T18:05:50;58.53;;;27.75;;
18997;SDS011;9632;51.018;4.284;2023-02-15T18:08:34;57.67;;;27.15;;
18997;SDS011;9632;51.018;4.284;2023-02-15T18:11:18;58.65;;;28.17;;
18997;SDS011;9632;51.018;4.284;2023-02-15T18:14:08;60.30;;;28.45;;
18997;SDS011;9632;51.018;4.284;2023-02-15T18:16:35;66.93;;;29.85;;
18997;SDS011;9632;51.018;4.284;2023-02-15T18:19:04;63.10;;;29.02;;
18997;SDS011;9632;51.018;4.284;2023-02-15T18:21:34;58.15;;;27.83;;
18997;SDS011;9632;51.018;4.284;2023-02-15T18:23:59;61.15;;;26.58;;
18997;SDS011;9632;51.018;4.284;2023-02-15T18:26:25;55.30;;;26.38;;
18997;SDS011;9632;51.018;4.284;2023-02-15T18:28:52;58.08;;;28.23;;
18997;SDS011;9632;51.018;4.284;2023-02-15T18:31:18;59.95;;;27.85;;
18997;SDS011;9632;51.018;4.284;2023-02-15T18:33:47;56.85;;;28.08;;
18997;SDS011;9632;51.018;4.284;2023-02-15T18:36:28;59.10;;;28.67;;
18997;SDS011;9632;51.018;4.284;2023-02-15T18:38:56;61.58;;;27.88;;
18997;SDS011;9632;51.018;4.284;2023-02-15T18:41:24;60.80;;;26.95;;
18997;SDS011;9632;51.018;4.284;2023-02-15T18:43:50;52.65;;;25.98;;
18997;SDS011;9632;51.018;4.284;2023-02-15T18:46:17;57.45;;;26.50;;
18997;SDS011;9632;51.018;4.284;2023-02-15T18:48:43;57.78;;;27.88;;
18997;SDS011;9632;51.018;4.284;2023-02-15T18:51:28;62.00;;;28.42;;
18997;SDS011;9632;51.018;4.284;2023-02-15T18:53:55;57.63;;;27.33;;
18997;SDS011;9632;51.018;4.284;2023-02-15T18:56:22;56.90;;;26.42;;
18997;SDS011;9632;51.018;4.284;2023-02-15T18:58:47;55.33;;;26.95;;
18997;SDS011;9632;51.018;4.284;2023-02-15T19:01:14;59.25;;;28.35;;
18997;SDS011;9632;51.018;4.284;2023-02-15T19:03:45;66.00;;;31.90;;
18997;SDS011;9632;51.018;4.284;2023-02-15T19:06:12;62.67;;;30.25;;
18997;SDS011;9632;51.018;4.284;2023-02-15T19:08:40;68.30;;;30.58;;
18997;SDS011;9632;51.018;4.284;2023-02-15T19:11:21;62.38;;;29.98;;
18997;SDS011;9632;51.018;4.284;2023-02-15T19:13:49;67.20;;;30.90;;
18997;SDS011;9632;51.018;4.284;2023-02-15T19:18:47;63.92;;;30.00;;
18997;SDS011;9632;51.018;4.284;2023-02-15T19:21:16;61.38;;;29.65;;
18997;SDS011;9632;51.018;4.284;2023-02-15T19:23:42;64.63;;;29.92;;
18997;SDS011;9632;51.018;4.284;2023-02-15T19:26:13;57.88;;;28.45;;
18997;SDS011;9632;51.018;4.284;2023-02-15T19:28:38;67.15;;;30.85;;
18997;SDS011;9632;51.018;4.284;2023-02-15T19:31:04;63.20;;;29.38;;
18997;SDS011;9632;51.018;4.284;2023-02-15T19:33:30;67.20;;;30.65;;
18997;SDS011;9632;51.018;4.284;2023-02-15T19:35:55;62.40;;;29.95;;
18997;SDS011;9632;51.018;4.284;2023-02-15T19:38:23;71.03;;;32.30;;
18997;SDS011;9632;51.018;4.284;2023-02-15T19:40:54;66.03;;;32.25;;
18997;SDS011;9632;51.018;4.284;2023-02-15T19:43:24;79.63;;;34.53;;
18997;SDS011;9632;51.018;4.284;2023-02-15T19:45:51;74.20;;;32.90;;
18997;SDS011;9632;51.018;4.284;2023-02-15T19:48:18;68.35;;;33.35;;
18997;SDS011;9632;51.018;4.284;2023-02-15T19:50:46;67.93;;;31.95;;
18997;SDS011;9632;51.018;4.284;2023-02-15T19:55:45;74.40;;;33.13;;
18997;SDS011;9632;51.018;4.284;2023-02-15T19:58:11;78.07;;;33.80;;
18997;SDS011;9632;51.018;4.284;2023-02-15T20:00:39;69.07;;;31.70;;
18997;SDS011;9632;51.018;4.284;2023-02-15T20:03:05;71.47;;;31.98;;
18997;SDS011;9632;51.018;4.284;2023-02-15T20:05:31;66.78;;;30.92;;
18997;SDS011;9632;51.018;4.284;2023-02-15T20:08:02;73.93;;;31.75;;
18997;SDS011;9632;51.018;4.284;2023-02-15T20:10:32;73.13;;;31.63;;
18997;SDS011;9632;51.018;4.284;2023-02-15T20:12:59;68.47;;;31.15;;
18997;SDS011;9632;51.018;4.284;2023-02-15T20:17:54;62.92;;;29.10;;
18997;SDS011;9632;51.018;4.284;2023-02-15T20:20:21;68.38;;;30.65;;
18997;SDS011;9632;51.018;4.284;2023-02-15T20:22:50;64.00;;;29.80;;
18997;SDS011;9632;51.018;4.284;2023-02-15T20:25:34;66.25;;;31.10;;
18997;SDS011;9632;51.018;4.284;2023-02-15T20:28:00;63.15;;;30.38;;
18997;SDS011;9632;51.018;4.284;2023-02-15T20:30:26;63.80;;;29.38;;
18997;SDS011;9632;51.018;4.284;2023-02-15T20:32:56;63.75;;;31.15;;
18997;SDS011;9632;51.018;4.284;2023-02-15T20:35:23;70.28;;;31.25;;
18997;SDS011;9632;51.018;4.284;2023-02-15T20:37:53;72.03;;;31.85;;
18997;SDS011;9632;51.018;4.284;2023-02-15T20:40:28;66.72;;;30.95;;
18997;SDS011;9632;51.018;4.284;2023-02-15T20:42:58;67.43;;;31.17;;
18997;SDS011;9632;51.018;4.284;2023-02-15T20:45:28;66.88;;;30.15;;
18997;SDS011;9632;51.018;4.284;2023-02-15T20:47:56;72.60;;;31.45;;
18997;SDS011;9632;51.018;4.284;2023-02-15T20:52:50;71.13;;;31.90;;
18997;SDS011;9632;51.018;4.284;2023-02-15T20:55:19;72.77;;;32.47;;
18997;SDS011;9632;51.018;4.284;2023-02-15T20:57:46;68.40;;;31.90;;
18997;SDS011;9632;51.018;4.284;2023-02-15T21:00:13;74.85;;;32.40;;
18997;SDS011;9632;51.018;4.284;2023-02-15T21:02:47;76.78;;;33.38;;
18997;SDS011;9632;51.018;4.284;2023-02-15T21:05:26;74.80;;;33.58;;
18997;SDS011;9632;51.018;4.284;2023-02-15T21:07:54;69.05;;;31.25;;
18997;SDS011;9632;51.018;4.284;2023-02-15T21:10:22;67.95;;;31.30;;
18997;SDS011;9632;51.018;4.284;2023-02-15T21:12:53;65.28;;;30.52;;
18997;SDS011;9632;51.018;4.284;2023-02-15T21:15:31;71.82;;;30.80;;
18997;SDS011;9632;51.018;4.284;2023-02-15T21:18:05;63.30;;;29.88;;
18997;SDS011;9632;51.018;4.284;2023-02-15T21:20:35;70.95;;;31.88;;
18997;SDS011;9632;51.018;4.284;2023-02-15T21:23:09;69.90;;;32.08;;
18997;SDS011;9632;51.018;4.284;2023-02-15T21:25:37;71.93;;;32.72;;
18997;SDS011;9632;51.018;4.284;2023-02-15T21:28:04;65.40;;;30.08;;
18997;SDS011;9632;51.018;4.284;2023-02-15T21:30:33;65.40;;;29.75;;
18997;SDS011;9632;51.018;4.284;2023-02-15T21:32:59;65.82;;;31.55;;
18997;SDS011;9632;51.018;4.284;2023-02-15T21:35:24;61.80;;;30.83;;
18997;SDS011;9632;51.018;4.284;2023-02-15T21:37:50;69.43;;;32.22;;
18997;SDS011;9632;51.018;4.284;2023-02-15T21:40:21;62.42;;;29.83;;
18997;SDS011;9632;51.018;4.284;2023-02-15T21:42:50;69.72;;;31.50;;
18997;SDS011;9632;51.018;4.284;2023-02-15T21:45:34;69.75;;;32.58;;
18997;SDS011;9632;51.018;4.284;2023-02-15T21:48:18;79.57;;;34.17;;
18997;SDS011;9632;51.018;4.284;2023-02-15T21:50:48;66.00;;;31.17;;
18997;SDS011;9632;51.018;4.284;2023-02-15T21:53:40;71.28;;;32.47;;
18997;SDS011;9632;51.018;4.284;2023-02-15T21:56:11;65.47;;;31.08;;
18997;SDS011;9632;51.018;4.284;2023-02-15T21:58:40;72.53;;;32.35;;
18997;SDS011;9632;51.018;4.284;2023-02-15T22:01:10;70.60;;;33.08;;
18997;SDS011;9632;51.018;4.284;2023-02-15T22:03:59;70.53;;;32.70;;
18997;SDS011;9632;51.018;4.284;2023-02-15T22:06:25;76.18;;;34.20;;
18997;SDS011;9632;51.018;4.284;2023-02-15T22:08:51;78.68;;;36.45;;
18997;SDS011;9632;51.018;4.284;2023-02-15T22:11:18;70.60;;;33.05;;
18997;SDS011;9632;51.018;4.284;2023-02-15T22:13:46;71.40;;;32.40;;
18997;SDS011;9632;51.018;4.284;2023-02-15T22:16:15;71.57;;;32.10;;
18997;SDS011;9632;51.018;4.284;2023-02-15T22:18:43;74.63;;;33.58;;
18997;SDS011;9632;51.018;4.284;2023-02-15T22:21:09;67.18;;;31.63;;
18997;SDS011;9632;51.018;4.284;2023-02-15T22:23:36;68.07;;;32.13;;
18997;SDS011;9632;51.018;4.284;2023-02-15T22:26:03;76.93;;;33.47;;
18997;SDS011;9632;51.018;4.284;2023-02-15T22:28:32;71.10;;;33.60;;
18997;SDS011;9632;51.018;4.284;2023-02-15T22:31:02;68.47;;;32.10;;
18997;SDS011;9632;51.018;4.284;2023-02-15T22:33:31;74.22;;;32.60;;
18997;SDS011;9632;51.018;4.284;2023-02-15T22:35:58;69.30;;;32.55;;
18997;SDS011;9632;51.018;4.284;2023-02-15T22:38:24;73.32;;;32.45;;
18997;SDS011;9632;51.018;4.284;2023-02-15T22:40:50;70.18;;;32.65;;
18997;SDS011;9632;51.018;4.284;2023-02-15T22:43:20;60.90;;;30.58;;
18997;SDS011;9632;51.018;4.284;2023-02-15T22:45:52;70.22;;;32.72;;
18997;SDS011;9632;51.018;4.284;2023-02-15T22:48:21;74.32;;;33.08;;
18997;SDS011;9632;51.018;4.284;2023-02-15T22:50:47;69.97;;;31.77;;
18997;SDS011;9632;51.018;4.284;2023-02-15T22:53:13;69.35;;;32.17;;
18997;SDS011;9632;51.018;4.284;2023-02-15T22:55:38;73.70;;;32.13;;
18997;SDS011;9632;51.018;4.284;2023-02-15T22:58:04;67.63;;;31.58;;
18997;SDS011;9632;51.018;4.284;2023-02-15T23:00:32;66.13;;;31.25;;
18997;SDS011;9632;51.018;4.284;2023-02-15T23:03:08;62.20;;;29.88;;
18997;SDS011;9632;51.018;4.284;2023-02-15T23:05:38;63.53;;;30.48;;
18997;SDS011;9632;51.018;4.284;2023-02-15T23:08:04;65.78;;;30.83;;
18997;SDS011;9632;51.018;4.284;2023-02-15T23:10:30;70.35;;;31.60;;
18997;SDS011;9632;51.018;4.284;2023-02-15T23:12:56;63.33;;;30.27;;
18997;SDS011;9632;51.018;4.284;2023-02-15T23:15:43;62.20;;;30.25;;
18997;SDS011;9632;51.018;4.284;2023-02-15T23:18:20;65.43;;;30.25;;
18997;SDS011;9632;51.018;4.284;2023-02-15T23:20:58;65.25;;;32.22;;
18997;SDS011;9632;51.018;4.284;2023-02-15T23:23:41;66.60;;;31.30;;
18997;SDS011;9632;51.018;4.284;2023-02-15T23:28:46;77.22;;;34.78;;
18997;SDS011;9632;51.018;4.284;2023-02-15T23:33:47;69.28;;;32.75;;
18997;SDS011;9632;51.018;4.284;2023-02-15T23:36:27;61.22;;;30.45;;
18997;SDS011;9632;51.018;4.284;2023-02-15T23:38:58;62.22;;;29.38;;
18997;SDS011;9632;51.018;4.284;2023-02-15T23:41:49;65.97;;;31.63;;
18997;SDS011;9632;51.018;4.284;2023-02-15T23:44:18;66.30;;;31.33;;
18997;SDS011;9632;51.018;4.284;2023-02-15T23:46:44;69.20;;;32.63;;
18997;SDS011;9632;51.018;4.284;2023-02-15T23:49:11;73.65;;;33.70;;
18997;SDS011;9632;51.018;4.284;2023-02-15T23:51:39;70.18;;;32.08;;
18997;SDS011;9632;51.018;4.284;2023-02-15T23:54:06;68.97;;;32.42;;
18997;SDS011;9632;51.018;4.284;2023-02-15T23:56:31;73.40;;;32.63;;
18997;SDS011;9632;51.018;4.284;2023-02-15T23:58:57;69.57;;;32.58;;
